sensor_id;sensor_type;location;lat;lon;timestamp;P1;durP1;ratioP1;P2;durP2;ratioP2
44987;SDS011;35735;52.226;21.254;2022-07-05T00:03:50;8.15;;;6.62;;
44987;SDS011;35735;52.226;21.254;2022-07-05T00:08:51;8.23;;;7.30;;
44987;SDS011;35735;52.226;21.254;2022-07-05T00:13:51;12.68;;;7.93;;
44987;SDS011;35735;52.226;21.254;2022-07-05T00:18:52;12.80;;;8.27;;
44987;SDS011;35735;52.226;21.254;2022-07-05T00:23:56;12.65;;;8.68;;
44987;SDS011;35735;52.226;21.254;2022-07-05T00:28:56;14.27;;;9.65;;
44987;SDS011;35735;52.226;21.254;2022-07-05T00:33:57;10.40;;;9.35;;
44987;SDS011;35735;52.226;21.254;2022-07-05T00:38:57;10.40;;;9.40;;
44987;SDS011;35735;52.226;21.254;2022-07-05T00:43:59;9.90;;;8.75;;
44987;SDS011;35735;52.226;21.254;2022-07-05T00:49:03;11.02;;;9.13;;
44987;SDS011;35735;52.226;21.254;2022-07-05T00:54:05;9.75;;;8.75;;
44987;SDS011;35735;52.226;21.254;2022-07-05T00:59:06;9.85;;;8.68;;
44987;SDS011;35735;52.226;21.254;2022-07-05T01:04:07;10.77;;;9.02;;
44987;SDS011;35735;52.226;21.254;2022-07-05T01:09:08;10.35;;;8.43;;
44987;SDS011;35735;52.226;21.254;2022-07-05T01:14:12;23.27;;;9.18;;
44987;SDS011;35735;52.226;21.254;2022-07-05T01:19:19;20.85;;;9.70;;
44987;SDS011;35735;52.226;21.254;2022-07-05T01:24:21;18.95;;;9.43;;
44987;SDS011;35735;52.226;21.254;2022-07-05T01:29:22;13.57;;;9.88;;
44987;SDS011;35735;52.226;21.254;2022-07-05T01:34:23;12.05;;;9.88;;
44987;SDS011;35735;52.226;21.254;2022-07-05T01:39:23;10.00;;;9.10;;
44987;SDS011;35735;52.226;21.254;2022-07-05T01:44:24;9.98;;;9.05;;
44987;SDS011;35735;52.226;21.254;2022-07-05T01:49:24;10.32;;;9.07;;
44987;SDS011;35735;52.226;21.254;2022-07-05T01:54:28;9.38;;;8.48;;
44987;SDS011;35735;52.226;21.254;2022-07-05T01:59:29;10.77;;;8.52;;
44987;SDS011;35735;52.226;21.254;2022-07-05T02:04:32;9.20;;;8.27;;
44987;SDS011;35735;52.226;21.254;2022-07-05T02:09:36;8.07;;;7.37;;
44987;SDS011;35735;52.226;21.254;2022-07-05T02:14:37;8.55;;;7.70;;
44987;SDS011;35735;52.226;21.254;2022-07-05T02:19:38;11.98;;;7.53;;
44987;SDS011;35735;52.226;21.254;2022-07-05T02:24:38;8.50;;;7.65;;
44987;SDS011;35735;52.226;21.254;2022-07-05T02:29:39;8.73;;;7.78;;
44987;SDS011;35735;52.226;21.254;2022-07-05T02:34:39;8.23;;;7.43;;
44987;SDS011;35735;52.226;21.254;2022-07-05T02:39:40;7.57;;;6.85;;
44987;SDS011;35735;52.226;21.254;2022-07-05T02:44:40;8.30;;;7.50;;
44987;SDS011;35735;52.226;21.254;2022-07-05T02:49:41;7.82;;;7.05;;
44987;SDS011;35735;52.226;21.254;2022-07-05T02:54:41;7.68;;;6.85;;
44987;SDS011;35735;52.226;21.254;2022-07-05T02:59:42;8.52;;;7.68;;
44987;SDS011;35735;52.226;21.254;2022-07-05T03:04:43;8.80;;;7.82;;
44987;SDS011;35735;52.226;21.254;2022-07-05T03:09:43;9.18;;;7.28;;
44987;SDS011;35735;52.226;21.254;2022-07-05T03:14:44;7.93;;;7.12;;
44987;SDS011;35735;52.226;21.254;2022-07-05T03:19:44;8.77;;;7.40;;
44987;SDS011;35735;52.226;21.254;2022-07-05T03:24:45;7.50;;;6.55;;
44987;SDS011;35735;52.226;21.254;2022-07-05T03:29:45;8.50;;;7.03;;
44987;SDS011;35735;52.226;21.254;2022-07-05T03:34:46;11.27;;;7.15;;
44987;SDS011;35735;52.226;21.254;2022-07-05T03:39:46;9.45;;;6.40;;
44987;SDS011;35735;52.226;21.254;2022-07-05T03:44:47;6.75;;;6.18;;
44987;SDS011;35735;52.226;21.254;2022-07-05T03:49:49;7.30;;;6.00;;
44987;SDS011;35735;52.226;21.254;2022-07-05T03:54:49;7.18;;;6.07;;
44987;SDS011;35735;52.226;21.254;2022-07-05T03:59:50;9.13;;;6.10;;
44987;SDS011;35735;52.226;21.254;2022-07-05T04:04:51;7.10;;;5.80;;
44987;SDS011;35735;52.226;21.254;2022-07-05T04:09:52;7.60;;;5.87;;
44987;SDS011;35735;52.226;21.254;2022-07-05T04:14:53;6.55;;;5.70;;
44987;SDS011;35735;52.226;21.254;2022-07-05T04:19:54;7.07;;;5.68;;
44987;SDS011;35735;52.226;21.254;2022-07-05T04:24:54;7.03;;;5.43;;
44987;SDS011;35735;52.226;21.254;2022-07-05T04:29:55;6.28;;;5.68;;
44987;SDS011;35735;52.226;21.254;2022-07-05T04:34:55;9.07;;;5.82;;
44987;SDS011;35735;52.226;21.254;2022-07-05T04:39:56;6.53;;;5.50;;
44987;SDS011;35735;52.226;21.254;2022-07-05T04:44:57;9.18;;;5.80;;
44987;SDS011;35735;52.226;21.254;2022-07-05T04:49:57;5.57;;;5.05;;
44987;SDS011;35735;52.226;21.254;2022-07-05T04:54:58;6.65;;;5.95;;
44987;SDS011;35735;52.226;21.254;2022-07-05T04:59:59;8.23;;;5.62;;
44987;SDS011;35735;52.226;21.254;2022-07-05T05:04:59;5.75;;;5.07;;
44987;SDS011;35735;52.226;21.254;2022-07-05T05:10:00;9.75;;;5.93;;
44987;SDS011;35735;52.226;21.254;2022-07-05T05:15:01;8.00;;;5.62;;
44987;SDS011;35735;52.226;21.254;2022-07-05T05:20:03;8.98;;;6.22;;
44987;SDS011;35735;52.226;21.254;2022-07-05T05:25:07;13.62;;;5.95;;
44987;SDS011;35735;52.226;21.254;2022-07-05T05:30:08;8.15;;;5.95;;
44987;SDS011;35735;52.226;21.254;2022-07-05T05:35:10;7.82;;;6.05;;
44987;SDS011;35735;52.226;21.254;2022-07-05T05:40:11;6.12;;;5.57;;
44987;SDS011;35735;52.226;21.254;2022-07-05T05:45:15;12.15;;;6.07;;
44987;SDS011;35735;52.226;21.254;2022-07-05T05:50:19;9.70;;;5.93;;
44987;SDS011;35735;52.226;21.254;2022-07-05T05:55:31;10.98;;;5.30;;
44987;SDS011;35735;52.226;21.254;2022-07-05T06:00:32;7.37;;;5.72;;
44987;SDS011;35735;52.226;21.254;2022-07-05T06:05:33;14.23;;;5.80;;
44987;SDS011;35735;52.226;21.254;2022-07-05T06:10:34;8.32;;;5.75;;
44987;SDS011;35735;52.226;21.254;2022-07-05T06:15:36;8.13;;;4.97;;
44987;SDS011;35735;52.226;21.254;2022-07-05T06:20:37;6.55;;;4.97;;
44987;SDS011;35735;52.226;21.254;2022-07-05T06:25:39;5.70;;;4.97;;
44987;SDS011;35735;52.226;21.254;2022-07-05T06:30:39;7.35;;;5.07;;
44987;SDS011;35735;52.226;21.254;2022-07-05T06:35:40;8.30;;;4.85;;
44987;SDS011;35735;52.226;21.254;2022-07-05T06:40:41;5.20;;;4.65;;
44987;SDS011;35735;52.226;21.254;2022-07-05T06:45:42;6.53;;;4.57;;
44987;SDS011;35735;52.226;21.254;2022-07-05T06:50:43;5.05;;;4.43;;
44987;SDS011;35735;52.226;21.254;2022-07-05T06:55:44;21.92;;;4.78;;
44987;SDS011;35735;52.226;21.254;2022-07-05T07:00:46;8.32;;;4.68;;
44987;SDS011;35735;52.226;21.254;2022-07-05T07:05:49;8.23;;;4.62;;
44987;SDS011;35735;52.226;21.254;2022-07-05T07:10:50;7.82;;;4.20;;
44987;SDS011;35735;52.226;21.254;2022-07-05T07:15:50;5.82;;;3.87;;
44987;SDS011;35735;52.226;21.254;2022-07-05T07:20:51;4.78;;;3.78;;
44987;SDS011;35735;52.226;21.254;2022-07-05T07:25:51;7.35;;;4.05;;
44987;SDS011;35735;52.226;21.254;2022-07-05T07:30:52;6.00;;;4.10;;
44987;SDS011;35735;52.226;21.254;2022-07-05T07:35:53;4.10;;;3.70;;
44987;SDS011;35735;52.226;21.254;2022-07-05T07:40:53;4.93;;;3.75;;
44987;SDS011;35735;52.226;21.254;2022-07-05T07:45:54;6.55;;;3.22;;
44987;SDS011;35735;52.226;21.254;2022-07-05T07:50:54;4.10;;;3.65;;
44987;SDS011;35735;52.226;21.254;2022-07-05T07:55:55;3.78;;;3.03;;
44987;SDS011;35735;52.226;21.254;2022-07-05T08:00:55;19.00;;;4.12;;
44987;SDS011;35735;52.226;21.254;2022-07-05T08:05:56;7.40;;;3.60;;
44987;SDS011;35735;52.226;21.254;2022-07-05T08:10:56;5.95;;;3.30;;
44987;SDS011;35735;52.226;21.254;2022-07-05T08:15:57;16.67;;;3.75;;
44987;SDS011;35735;52.226;21.254;2022-07-05T08:20:58;7.50;;;3.40;;
44987;SDS011;35735;52.226;21.254;2022-07-05T08:25:59;4.95;;;2.90;;
44987;SDS011;35735;52.226;21.254;2022-07-05T08:30:59;6.87;;;3.17;;
44987;SDS011;35735;52.226;21.254;2022-07-05T08:36:00;4.25;;;3.08;;
44987;SDS011;35735;52.226;21.254;2022-07-05T08:41:00;4.15;;;3.10;;
44987;SDS011;35735;52.226;21.254;2022-07-05T08:46:02;4.95;;;2.87;;
44987;SDS011;35735;52.226;21.254;2022-07-05T08:51:04;29.08;;;4.43;;
44987;SDS011;35735;52.226;21.254;2022-07-05T08:56:04;38.55;;;4.62;;
44987;SDS011;35735;52.226;21.254;2022-07-05T09:01:08;21.83;;;3.58;;
44987;SDS011;35735;52.226;21.254;2022-07-05T09:06:11;4.82;;;2.67;;
44987;SDS011;35735;52.226;21.254;2022-07-05T09:11:16;20.35;;;3.90;;
44987;SDS011;35735;52.226;21.254;2022-07-05T09:16:23;4.37;;;2.97;;
44987;SDS011;35735;52.226;21.254;2022-07-05T09:21:25;4.70;;;3.22;;
44987;SDS011;35735;52.226;21.254;2022-07-05T09:31:45;5.05;;;3.00;;
44987;SDS011;35735;52.226;21.254;2022-07-05T09:42:11;11.57;;;3.40;;
44987;SDS011;35735;52.226;21.254;2022-07-05T09:47:14;6.30;;;2.90;;
44987;SDS011;35735;52.226;21.254;2022-07-05T09:52:30;4.43;;;3.00;;
44987;SDS011;35735;52.226;21.254;2022-07-05T09:57:36;7.25;;;2.80;;
44987;SDS011;35735;52.226;21.254;2022-07-05T10:12:53;4.37;;;2.40;;
44987;SDS011;35735;52.226;21.254;2022-07-05T10:18:07;5.03;;;2.53;;
44987;SDS011;35735;52.226;21.254;2022-07-05T10:23:14;31.12;;;4.53;;
44987;SDS011;35735;52.226;21.254;2022-07-05T10:28:18;9.30;;;2.83;;
44987;SDS011;35735;52.226;21.254;2022-07-05T10:33:20;10.10;;;2.95;;
44987;SDS011;35735;52.226;21.254;2022-07-05T10:38:23;4.15;;;2.60;;
44987;SDS011;35735;52.226;21.254;2022-07-05T10:43:25;8.95;;;2.90;;
44987;SDS011;35735;52.226;21.254;2022-07-05T10:48:28;12.27;;;2.78;;
44987;SDS011;35735;52.226;21.254;2022-07-05T10:53:30;7.55;;;2.55;;
44987;SDS011;35735;52.226;21.254;2022-07-05T10:59:05;7.68;;;2.72;;
44987;SDS011;35735;52.226;21.254;2022-07-05T11:04:11;4.85;;;2.87;;
44987;SDS011;35735;52.226;21.254;2022-07-05T11:09:22;3.85;;;2.62;;
44987;SDS011;35735;52.226;21.254;2022-07-05T11:19:23;6.23;;;2.67;;
44987;SDS011;35735;52.226;21.254;2022-07-05T11:24:27;112.47;;;8.65;;
44987;SDS011;35735;52.226;21.254;2022-07-05T11:29:39;9.88;;;2.70;;
44987;SDS011;35735;52.226;21.254;2022-07-05T11:34:41;5.43;;;2.60;;
44987;SDS011;35735;52.226;21.254;2022-07-05T11:39:44;10.80;;;2.53;;
44987;SDS011;35735;52.226;21.254;2022-07-05T11:44:49;6.85;;;2.70;;
44987;SDS011;35735;52.226;21.254;2022-07-05T11:49:56;4.78;;;2.78;;
44987;SDS011;35735;52.226;21.254;2022-07-05T11:54:59;7.40;;;2.92;;
44987;SDS011;35735;52.226;21.254;2022-07-05T12:00:03;9.88;;;3.30;;
44987;SDS011;35735;52.226;21.254;2022-07-05T12:05:05;11.18;;;3.05;;
44987;SDS011;35735;52.226;21.254;2022-07-05T12:10:05;5.55;;;2.62;;
44987;SDS011;35735;52.226;21.254;2022-07-05T12:15:06;11.00;;;3.25;;
44987;SDS011;35735;52.226;21.254;2022-07-05T12:20:09;9.27;;;2.85;;
44987;SDS011;35735;52.226;21.254;2022-07-05T12:25:19;13.32;;;3.08;;
44987;SDS011;35735;52.226;21.254;2022-07-05T12:30:21;10.48;;;2.80;;
44987;SDS011;35735;52.226;21.254;2022-07-05T12:35:35;4.87;;;2.40;;
44987;SDS011;35735;52.226;21.254;2022-07-05T12:40:37;14.25;;;2.70;;
44987;SDS011;35735;52.226;21.254;2022-07-05T12:45:39;12.40;;;3.05;;
44987;SDS011;35735;52.226;21.254;2022-07-05T12:50:44;4.78;;;2.50;;
44987;SDS011;35735;52.226;21.254;2022-07-05T12:55:46;4.93;;;2.55;;
44987;SDS011;35735;52.226;21.254;2022-07-05T13:00:48;8.02;;;2.30;;
44987;SDS011;35735;52.226;21.254;2022-07-05T13:06:01;16.55;;;3.33;;
44987;SDS011;35735;52.226;21.254;2022-07-05T13:11:02;9.65;;;2.80;;
44987;SDS011;35735;52.226;21.254;2022-07-05T13:16:03;6.32;;;2.20;;
44987;SDS011;35735;52.226;21.254;2022-07-05T13:21:03;4.65;;;2.47;;
44987;SDS011;35735;52.226;21.254;2022-07-05T13:26:04;11.15;;;2.92;;
44987;SDS011;35735;52.226;21.254;2022-07-05T13:31:05;9.07;;;2.75;;
44987;SDS011;35735;52.226;21.254;2022-07-05T13:36:05;8.43;;;2.50;;
44987;SDS011;35735;52.226;21.254;2022-07-05T13:41:06;8.02;;;2.58;;
44987;SDS011;35735;52.226;21.254;2022-07-05T13:46:10;27.92;;;3.62;;
44987;SDS011;35735;52.226;21.254;2022-07-05T13:51:11;15.13;;;3.12;;
44987;SDS011;35735;52.226;21.254;2022-07-05T13:56:12;28.98;;;3.80;;
44987;SDS011;35735;52.226;21.254;2022-07-05T14:01:12;5.93;;;2.50;;
44987;SDS011;35735;52.226;21.254;2022-07-05T14:06:13;4.30;;;2.55;;
44987;SDS011;35735;52.226;21.254;2022-07-05T14:11:13;6.20;;;2.80;;
44987;SDS011;35735;52.226;21.254;2022-07-05T14:16:14;5.12;;;3.40;;
44987;SDS011;35735;52.226;21.254;2022-07-05T14:21:14;4.70;;;3.80;;
44987;SDS011;35735;52.226;21.254;2022-07-05T14:26:15;8.23;;;4.78;;
44987;SDS011;35735;52.226;21.254;2022-07-05T14:31:16;8.80;;;5.18;;
44987;SDS011;35735;52.226;21.254;2022-07-05T14:36:16;7.62;;;4.18;;
44987;SDS011;35735;52.226;21.254;2022-07-05T14:41:17;8.60;;;5.15;;
44987;SDS011;35735;52.226;21.254;2022-07-05T14:46:17;7.68;;;5.50;;
44987;SDS011;35735;52.226;21.254;2022-07-05T14:51:18;7.03;;;5.70;;
44987;SDS011;35735;52.226;21.254;2022-07-05T14:56:18;7.65;;;6.57;;
44987;SDS011;35735;52.226;21.254;2022-07-05T15:01:19;9.65;;;6.43;;
44987;SDS011;35735;52.226;21.254;2022-07-05T15:06:20;8.73;;;5.70;;
44987;SDS011;35735;52.226;21.254;2022-07-05T15:11:20;6.50;;;4.80;;
44987;SDS011;35735;52.226;21.254;2022-07-05T15:16:21;6.65;;;4.70;;
44987;SDS011;35735;52.226;21.254;2022-07-05T15:21:21;8.63;;;4.87;;
44987;SDS011;35735;52.226;21.254;2022-07-05T15:26:22;6.07;;;4.07;;
44987;SDS011;35735;52.226;21.254;2022-07-05T15:31:22;6.80;;;3.97;;
44987;SDS011;35735;52.226;21.254;2022-07-05T15:36:23;6.60;;;3.83;;
44987;SDS011;35735;52.226;21.254;2022-07-05T15:41:24;6.50;;;3.90;;
44987;SDS011;35735;52.226;21.254;2022-07-05T15:46:25;5.53;;;3.58;;
44987;SDS011;35735;52.226;21.254;2022-07-05T15:51:26;4.95;;;3.97;;
44987;SDS011;35735;52.226;21.254;2022-07-05T15:56:26;6.03;;;4.37;;
44987;SDS011;35735;52.226;21.254;2022-07-05T16:01:27;4.85;;;4.00;;
44987;SDS011;35735;52.226;21.254;2022-07-05T16:06:27;4.75;;;3.50;;
44987;SDS011;35735;52.226;21.254;2022-07-05T16:11:28;3.22;;;2.50;;
44987;SDS011;35735;52.226;21.254;2022-07-05T16:16:28;2.33;;;2.12;;
44987;SDS011;35735;52.226;21.254;2022-07-05T16:21:29;3.45;;;2.30;;
44987;SDS011;35735;52.226;21.254;2022-07-05T16:26:29;3.95;;;2.20;;
44987;SDS011;35735;52.226;21.254;2022-07-05T16:31:30;2.75;;;1.73;;
44987;SDS011;35735;52.226;21.254;2022-07-05T16:36:31;3.00;;;2.08;;
44987;SDS011;35735;52.226;21.254;2022-07-05T16:41:31;2.67;;;1.70;;
44987;SDS011;35735;52.226;21.254;2022-07-05T16:46:32;4.12;;;2.00;;
44987;SDS011;35735;52.226;21.254;2022-07-05T16:51:33;3.85;;;2.00;;
44987;SDS011;35735;52.226;21.254;2022-07-05T16:56:33;1.92;;;1.73;;
44987;SDS011;35735;52.226;21.254;2022-07-05T17:01:34;3.87;;;1.95;;
44987;SDS011;35735;52.226;21.254;2022-07-05T17:06:34;3.83;;;1.92;;
44987;SDS011;35735;52.226;21.254;2022-07-05T17:11:35;3.80;;;1.98;;
44987;SDS011;35735;52.226;21.254;2022-07-05T17:16:35;2.50;;;2.30;;
44987;SDS011;35735;52.226;21.254;2022-07-05T17:21:36;3.90;;;2.30;;
44987;SDS011;35735;52.226;21.254;2022-07-05T17:26:37;4.95;;;2.42;;
44987;SDS011;35735;52.226;21.254;2022-07-05T17:31:37;4.43;;;2.45;;
44987;SDS011;35735;52.226;21.254;2022-07-05T17:36:38;4.60;;;2.95;;
44987;SDS011;35735;52.226;21.254;2022-07-05T17:41:38;5.07;;;2.72;;
44987;SDS011;35735;52.226;21.254;2022-07-05T17:46:39;4.82;;;2.90;;
44987;SDS011;35735;52.226;21.254;2022-07-05T17:51:39;5.55;;;2.80;;
44987;SDS011;35735;52.226;21.254;2022-07-05T17:56:41;3.95;;;2.78;;
44987;SDS011;35735;52.226;21.254;2022-07-05T18:01:42;2.92;;;2.55;;
44987;SDS011;35735;52.226;21.254;2022-07-05T18:06:42;5.10;;;2.92;;
44987;SDS011;35735;52.226;21.254;2022-07-05T18:11:43;5.28;;;3.00;;
44987;SDS011;35735;52.226;21.254;2022-07-05T18:16:43;2.97;;;2.65;;
44987;SDS011;35735;52.226;21.254;2022-07-05T18:21:44;5.57;;;3.05;;
44987;SDS011;35735;52.226;21.254;2022-07-05T18:26:44;4.07;;;2.90;;
44987;SDS011;35735;52.226;21.254;2022-07-05T18:31:45;4.70;;;2.90;;
44987;SDS011;35735;52.226;21.254;2022-07-05T18:36:46;4.12;;;2.97;;
44987;SDS011;35735;52.226;21.254;2022-07-05T18:41:46;4.70;;;3.17;;
44987;SDS011;35735;52.226;21.254;2022-07-05T18:46:47;6.82;;;3.62;;
44987;SDS011;35735;52.226;21.254;2022-07-05T18:51:47;4.82;;;3.40;;
44987;SDS011;35735;52.226;21.254;2022-07-05T18:56:48;4.82;;;3.12;;
44987;SDS011;35735;52.226;21.254;2022-07-05T19:01:48;4.70;;;3.07;;
44987;SDS011;35735;52.226;21.254;2022-07-05T19:06:49;4.87;;;2.97;;
44987;SDS011;35735;52.226;21.254;2022-07-05T19:11:49;3.55;;;3.20;;
44987;SDS011;35735;52.226;21.254;2022-07-05T19:16:50;5.20;;;3.85;;
44987;SDS011;35735;52.226;21.254;2022-07-05T19:21:51;4.07;;;3.22;;
44987;SDS011;35735;52.226;21.254;2022-07-05T19:26:51;4.57;;;3.28;;
44987;SDS011;35735;52.226;21.254;2022-07-05T19:31:52;3.25;;;2.95;;
44987;SDS011;35735;52.226;21.254;2022-07-05T19:36:52;4.82;;;3.40;;
44987;SDS011;35735;52.226;21.254;2022-07-05T19:41:53;3.67;;;3.30;;
44987;SDS011;35735;52.226;21.254;2022-07-05T19:46:54;4.47;;;3.47;;
44987;SDS011;35735;52.226;21.254;2022-07-05T19:51:54;5.05;;;3.50;;
44987;SDS011;35735;52.226;21.254;2022-07-05T19:56:55;4.25;;;3.85;;
44987;SDS011;35735;52.226;21.254;2022-07-05T20:01:56;5.47;;;3.50;;
44987;SDS011;35735;52.226;21.254;2022-07-05T20:06:57;4.82;;;3.62;;
44987;SDS011;35735;52.226;21.254;2022-07-05T20:11:57;5.28;;;3.62;;
44987;SDS011;35735;52.226;21.254;2022-07-05T20:16:58;3.80;;;3.40;;
44987;SDS011;35735;52.226;21.254;2022-07-05T20:22:01;4.18;;;3.53;;
44987;SDS011;35735;52.226;21.254;2022-07-05T20:27:02;4.68;;;3.35;;
44987;SDS011;35735;52.226;21.254;2022-07-05T20:32:03;4.65;;;3.45;;
44987;SDS011;35735;52.226;21.254;2022-07-05T20:37:04;5.78;;;4.12;;
44987;SDS011;35735;52.226;21.254;2022-07-05T20:42:05;5.22;;;3.97;;
44987;SDS011;35735;52.226;21.254;2022-07-05T20:47:06;4.10;;;3.67;;
44987;SDS011;35735;52.226;21.254;2022-07-05T20:52:06;6.05;;;4.12;;
44987;SDS011;35735;52.226;21.254;2022-07-05T20:57:07;6.22;;;4.12;;
44987;SDS011;35735;52.226;21.254;2022-07-05T21:02:07;6.95;;;4.03;;
44987;SDS011;35735;52.226;21.254;2022-07-05T21:07:08;4.55;;;4.10;;
44987;SDS011;35735;52.226;21.254;2022-07-05T21:12:09;6.22;;;4.28;;
44987;SDS011;35735;52.226;21.254;2022-07-05T21:17:09;5.00;;;4.50;;
44987;SDS011;35735;52.226;21.254;2022-07-05T21:22:10;8.07;;;4.68;;
44987;SDS011;35735;52.226;21.254;2022-07-05T21:27:10;6.62;;;4.55;;
44987;SDS011;35735;52.226;21.254;2022-07-05T21:32:11;4.95;;;4.00;;
44987;SDS011;35735;52.226;21.254;2022-07-05T21:37:12;5.28;;;4.62;;
44987;SDS011;35735;52.226;21.254;2022-07-05T21:42:12;5.25;;;4.75;;
44987;SDS011;35735;52.226;21.254;2022-07-05T21:47:13;5.55;;;4.43;;
44987;SDS011;35735;52.226;21.254;2022-07-05T21:52:13;5.22;;;4.28;;
44987;SDS011;35735;52.226;21.254;2022-07-05T21:57:14;5.12;;;4.20;;
44987;SDS011;35735;52.226;21.254;2022-07-05T22:02:14;4.85;;;3.97;;
44987;SDS011;35735;52.226;21.254;2022-07-05T22:07:15;7.43;;;4.70;;
44987;SDS011;35735;52.226;21.254;2022-07-05T22:12:16;6.43;;;5.68;;
44987;SDS011;35735;52.226;21.254;2022-07-05T22:17:16;6.00;;;5.40;;
44987;SDS011;35735;52.226;21.254;2022-07-05T22:22:17;6.47;;;5.72;;
44987;SDS011;35735;52.226;21.254;2022-07-05T22:27:17;7.05;;;5.53;;
44987;SDS011;35735;52.226;21.254;2022-07-05T22:32:18;5.90;;;4.90;;
44987;SDS011;35735;52.226;21.254;2022-07-05T22:37:18;6.55;;;5.22;;
44987;SDS011;35735;52.226;21.254;2022-07-05T22:42:19;8.27;;;5.00;;
44987;SDS011;35735;52.226;21.254;2022-07-05T22:47:19;4.80;;;4.40;;
44987;SDS011;35735;52.226;21.254;2022-07-05T22:52:20;6.80;;;5.22;;
44987;SDS011;35735;52.226;21.254;2022-07-05T22:57:20;6.22;;;5.22;;
44987;SDS011;35735;52.226;21.254;2022-07-05T23:02:21;8.27;;;4.93;;
44987;SDS011;35735;52.226;21.254;2022-07-05T23:07:21;5.68;;;5.03;;
44987;SDS011;35735;52.226;21.254;2022-07-05T23:12:22;7.40;;;5.37;;
44987;SDS011;35735;52.226;21.254;2022-07-05T23:17:23;6.28;;;5.55;;
44987;SDS011;35735;52.226;21.254;2022-07-05T23:22:23;7.10;;;5.12;;
44987;SDS011;35735;52.226;21.254;2022-07-05T23:27:28;8.13;;;5.18;;
44987;SDS011;35735;52.226;21.254;2022-07-05T23:32:30;6.28;;;4.70;;
44987;SDS011;35735;52.226;21.254;2022-07-05T23:37:31;5.57;;;4.35;;
44987;SDS011;35735;52.226;21.254;2022-07-05T23:42:32;5.10;;;4.55;;
44987;SDS011;35735;52.226;21.254;2022-07-05T23:47:33;5.03;;;4.50;;
44987;SDS011;35735;52.226;21.254;2022-07-05T23:52:34;5.18;;;4.57;;
44987;SDS011;35735;52.226;21.254;2022-07-05T23:57:34;7.35;;;4.72;;
